Time;durP1;ratioP1;P1;durP2;ratioP2;P2;SDS_P1;SDS_P2;PMS_P1;PMS_P2;Temp;Humidity;BMP_temperature;BMP_pressure;BME280_temperature;BME280_humidity;BME280_pressure;Samples;Min_cycle;Max_cycle;Signal;HPM_P1;HPM_P2
2022/07/02 00:00:45;;;;;;;4.40;2.90;;;;;;;;;;5017554;28;20048;-89
2022/07/02 00:03:11;;;;;;;5.63;2.60;;;;;;;;;;5017573;28;20072;-89
2022/07/02 00:05:39;;;;;;;4.07;2.50;;;;;;;;;;5018174;28;20380;-89
2022/07/02 00:08:05;;;;;;;5.45;2.47;;;;;;;;;;5016532;28;20049;-89
2022/07/02 00:10:32;;;;;;;7.60;2.88;;;;;;;;;;5019906;28;20099;-88
2022/07/02 00:12:58;;;;;;;5.82;2.78;;;;;;;;;;5020933;28;20459;-89
2022/07/02 00:15:24;;;;;;;8.77;2.70;;;;;;;;;;5023295;28;20112;-87
2022/07/02 00:17:50;;;;;;;4.82;2.70;;;;;;;;;;5014726;28;20029;-88
2022/07/02 00:20:16;;;;;;;11.50;3.05;;;;;;;;;;5018846;28;20439;-87
2022/07/02 00:22:43;;;;;;;6.22;2.53;;;;;;;;;;5021592;28;20120;-89
2022/07/02 00:25:09;;;;;;;4.25;2.70;;;;;;;;;;5023632;28;20036;-90
2022/07/02 00:27:37;;;;;;;4.43;2.67;;;;;;;;;;5014415;28;20026;-88
2022/07/02 00:30:04;;;;;;;8.73;3.53;;;;;;;;;;5018887;28;20258;-89
2022/07/02 00:32:31;;;;;;;5.10;2.35;;;;;;;;;;5017047;28;20413;-89
2022/07/02 00:34:57;;;;;;;3.28;2.47;;;;;;;;;;5019457;28;20470;-89
2022/07/02 00:37:27;;;;;;;7.13;2.88;;;;;;;;;;5005522;28;20033;-89
2022/07/02 00:39:56;;;;;;;7.22;2.75;;;;;;;;;;5020718;28;20064;-89
2022/07/02 00:42:25;;;;;;;6.03;2.75;;;;;;;;;;5018835;28;20457;-87
2022/07/02 00:44:52;;;;;;;8.00;4.00;;;;;;;;;;5004125;28;20073;-88
2022/07/02 00:47:20;;;;;;;9.32;4.00;;;;;;;;;;5011639;28;20109;-88
2022/07/02 00:49:46;;;;;;;8.55;3.35;;;;;;;;;;5004916;28;20034;-89
2022/07/02 00:52:12;;;;;;;4.85;2.25;;;;;;;;;;5003141;28;20412;-88
2022/07/02 00:54:38;;;;;;;8.10;3.70;;;;;;;;;;5005536;28;20040;-88
2022/07/02 00:57:05;;;;;;;7.45;3.20;;;;;;;;;;5015560;28;20026;-88
2022/07/02 00:59:32;;;;;;;4.30;2.70;;;;;;;;;;5024095;28;20525;-89
2022/07/02 01:02:01;;;;;;;8.27;3.05;;;;;;;;;;5006955;28;20045;-88
2022/07/02 01:04:31;;;;;;;8.75;2.72;;;;;;;;;;5009070;28;20029;-88
2022/07/02 01:07:05;;;;;;;10.43;2.75;;;;;;;;;;5008682;28;20473;-89
2022/07/02 01:12:26;;;;;;;9.05;2.63;;;;;;;;;;5016209;28;20422;-89
2022/07/02 01:14:53;;;;;;;7.65;2.60;;;;;;;;;;5006487;28;20033;-88
2022/07/02 01:17:19;;;;;;;7.75;2.50;;;;;;;;;;5005135;28;20048;-89
2022/07/02 01:19:45;;;;;;;8.85;3.08;;;;;;;;;;5020536;28;20472;-88
2022/07/02 01:22:16;;;;;;;6.07;2.70;;;;;;;;;;5002311;28;20037;-90
2022/07/02 01:24:43;;;;;;;6.22;2.83;;;;;;;;;;5002949;28;20029;-89
2022/07/02 01:27:09;;;;;;;10.93;3.08;;;;;;;;;;5001260;28;20061;-90
2022/07/02 01:29:35;;;;;;;6.60;2.78;;;;;;;;;;4999619;28;20036;-88
2022/07/02 01:32:01;;;;;;;5.72;2.70;;;;;;;;;;5002680;28;20022;-90
2022/07/02 01:34:27;;;;;;;6.20;3.22;;;;;;;;;;5004207;28;20057;-90
2022/07/02 01:36:53;;;;;;;8.57;3.42;;;;;;;;;;5010480;28;20049;-89
2022/07/02 01:39:23;;;;;;;4.22;2.63;;;;;;;;;;5018220;28;20596;-89
2022/07/02 01:41:50;;;;;;;5.97;2.53;;;;;;;;;;5019444;28;20041;-89
2022/07/02 01:44:16;;;;;;;4.78;2.80;;;;;;;;;;5018813;28;20360;-89
2022/07/02 01:46:49;;;;;;;7.63;3.05;;;;;;;;;;5019289;28;20031;-88
2022/07/02 01:49:15;;;;;;;8.27;3.28;;;;;;;;;;5014485;28;20533;-90
2022/07/02 01:51:41;;;;;;;5.10;2.55;;;;;;;;;;5012162;28;20167;-89
2022/07/02 01:54:07;;;;;;;6.35;2.92;;;;;;;;;;5017270;28;20026;-90
2022/07/02 01:56:36;;;;;;;7.13;2.83;;;;;;;;;;5038272;28;20432;-89
2022/07/02 01:59:03;;;;;;;9.80;2.65;;;;;;;;;;5037118;28;20152;-89
2022/07/02 02:01:29;;;;;;;7.63;3.90;;;;;;;;;;5045875;28;20499;-88
2022/07/02 02:03:55;;;;;;;6.03;2.90;;;;;;;;;;5036660;28;20063;-88
2022/07/02 02:06:21;;;;;;;12.15;3.00;;;;;;;;;;5038779;28;20037;-89
2022/07/02 02:08:47;;;;;;;5.93;3.08;;;;;;;;;;5054238;28;20040;-89
2022/07/02 02:11:13;;;;;;;7.07;3.00;;;;;;;;;;5038525;28;20120;-89
2022/07/02 02:13:39;;;;;;;11.75;3.40;;;;;;;;;;5036551;28;20458;-89
2022/07/02 02:16:05;;;;;;;9.10;3.05;;;;;;;;;;5043455;28;20025;-88
2022/07/02 02:18:31;;;;;;;4.00;2.58;;;;;;;;;;5036701;28;20119;-89
2022/07/02 02:20:57;;;;;;;5.95;2.55;;;;;;;;;;5038691;28;20094;-89
2022/07/02 02:23:23;;;;;;;9.27;2.80;;;;;;;;;;5038299;28;20025;-88
2022/07/02 02:25:49;;;;;;;9.65;3.35;;;;;;;;;;5039442;28;20025;-88
2022/07/02 02:28:15;;;;;;;4.15;2.70;;;;;;;;;;5038037;28;20039;-89
2022/07/02 02:30:41;;;;;;;18.90;3.28;;;;;;;;;;5039963;28;20128;-89
2022/07/02 02:33:07;;;;;;;5.82;2.80;;;;;;;;;;5033623;28;20150;-88
2022/07/02 02:35:33;;;;;;;12.48;3.30;;;;;;;;;;5059205;28;20032;-90
2022/07/02 02:37:59;;;;;;;7.35;2.88;;;;;;;;;;5031806;28;20033;-89
2022/07/02 02:40:25;;;;;;;4.97;2.78;;;;;;;;;;5034360;28;20397;-90
2022/07/02 02:42:51;;;;;;;6.32;2.92;;;;;;;;;;5037059;28;20076;-89
2022/07/02 02:45:17;;;;;;;7.40;2.95;;;;;;;;;;5033347;28;20488;-90
2022/07/02 02:47:43;;;;;;;7.88;2.35;;;;;;;;;;5032098;28;20465;-89
2022/07/02 02:53:13;;;;;;;5.95;3.13;;;;;;;;;;5036345;28;20037;-88
2022/07/02 02:55:39;;;;;;;11.45;2.83;;;;;;;;;;5036321;28;20996;-89
2022/07/02 02:58:05;;;;;;;9.57;2.90;;;;;;;;;;5035970;28;20022;-89
2022/07/02 03:00:31;;;;;;;5.95;2.60;;;;;;;;;;5038825;28;20025;-89
2022/07/02 03:02:57;;;;;;;6.55;2.88;;;;;;;;;;5034398;28;20381;-89
2022/07/02 03:05:23;;;;;;;7.75;2.50;;;;;;;;;;5031561;28;20044;-89
2022/07/02 03:07:49;;;;;;;8.85;2.65;;;;;;;;;;5036394;28;20025;-87
2022/07/02 03:10:17;;;;;;;10.90;2.90;;;;;;;;;;5036992;28;20108;-89
2022/07/02 03:12:43;;;;;;;8.43;2.78;;;;;;;;;;5035458;28;20037;-88
2022/07/02 03:15:09;;;;;;;6.22;2.63;;;;;;;;;;5035073;28;20061;-89
2022/07/02 03:17:35;;;;;;;9.52;4.32;;;;;;;;;;5033230;28;20476;-89
2022/07/02 03:20:01;;;;;;;19.52;3.40;;;;;;;;;;5042575;28;20047;-90
2022/07/02 03:22:27;;;;;;;5.35;3.08;;;;;;;;;;5034061;28;20491;-89
2022/07/02 03:24:53;;;;;;;7.63;2.83;;;;;;;;;;5036575;28;20477;-89
2022/07/02 03:27:19;;;;;;;10.38;3.60;;;;;;;;;;5044305;28;20534;-89
2022/07/02 03:29:45;;;;;;;9.88;3.78;;;;;;;;;;5033596;28;20034;-89
2022/07/02 03:32:11;;;;;;;12.48;3.63;;;;;;;;;;5038238;28;20408;-89
2022/07/02 03:34:37;;;;;;;12.52;3.55;;;;;;;;;;5038843;28;20480;-88
2022/07/02 03:37:03;;;;;;;9.40;3.28;;;;;;;;;;5033355;28;20044;-89
2022/07/02 03:39:29;;;;;;;8.25;3.22;;;;;;;;;;5037071;28;20179;-89
2022/07/02 03:41:55;;;;;;;5.32;2.78;;;;;;;;;;5036790;28;20050;-88
2022/07/02 03:44:21;;;;;;;12.75;3.63;;;;;;;;;;5036453;28;20037;-88
2022/07/02 03:46:47;;;;;;;5.30;3.40;;;;;;;;;;5039187;28;20052;-88
2022/07/02 03:49:13;;;;;;;11.93;3.05;;;;;;;;;;5036062;28;20049;-89
2022/07/02 03:51:40;;;;;;;9.63;4.00;;;;;;;;;;5037975;28;20022;-89
2022/07/02 03:54:05;;;;;;;12.00;3.90;;;;;;;;;;5039705;28;20021;-89
2022/07/02 03:56:32;;;;;;;6.47;2.95;;;;;;;;;;5036675;28;20620;-89
2022/07/02 03:58:58;;;;;;;10.18;3.15;;;;;;;;;;5033976;28;21050;-88
2022/07/02 04:01:24;;;;;;;12.30;5.15;;;;;;;;;;5034058;28;20400;-87
2022/07/02 04:03:50;;;;;;;11.27;4.07;;;;;;;;;;5035877;28;20465;-87
2022/07/02 04:06:16;;;;;;;8.18;3.53;;;;;;;;;;5039900;28;20090;-87
2022/07/02 04:08:42;;;;;;;6.50;3.65;;;;;;;;;;5034367;28;20084;-86
2022/07/02 04:11:08;;;;;;;11.05;3.50;;;;;;;;;;5035049;28;20116;-86
2022/07/02 04:13:34;;;;;;;6.93;3.55;;;;;;;;;;5036307;28;20054;-88
2022/07/02 04:16:01;;;;;;;11.98;3.80;;;;;;;;;;5037373;28;20108;-88
2022/07/02 04:18:27;;;;;;;11.70;3.88;;;;;;;;;;5034676;28;20056;-89
2022/07/02 04:20:53;;;;;;;10.90;3.70;;;;;;;;;;5032323;28;20084;-88
2022/07/02 04:23:19;;;;;;;10.48;3.47;;;;;;;;;;5030129;28;20100;-88
2022/07/02 04:25:44;;;;;;;10.63;3.80;;;;;;;;;;5032666;28;20527;-88
2022/07/02 04:28:12;;;;;;;5.68;3.50;;;;;;;;;;5034863;28;20022;-88
2022/07/02 04:30:38;;;;;;;14.25;3.92;;;;;;;;;;5034681;28;20068;-87
2022/07/02 04:33:04;;;;;;;7.57;3.65;;;;;;;;;;5034789;28;20401;-88
2022/07/02 04:35:30;;;;;;;8.98;3.10;;;;;;;;;;5035842;28;20032;-87
2022/07/02 04:37:56;;;;;;;9.60;3.22;;;;;;;;;;5031244;28;20053;-88
2022/07/02 04:40:23;;;;;;;7.63;3.30;;;;;;;;;;5041595;28;20025;-88
2022/07/02 04:42:49;;;;;;;9.43;3.60;;;;;;;;;;5035055;28;20040;-87
2022/07/02 04:45:15;;;;;;;10.10;3.45;;;;;;;;;;5032014;28;20124;-88
2022/07/02 04:47:41;;;;;;;6.78;3.28;;;;;;;;;;5035156;28;20619;-88
2022/07/02 04:50:07;;;;;;;15.48;3.15;;;;;;;;;;5030495;28;20040;-88
2022/07/02 04:52:33;;;;;;;8.40;3.35;;;;;;;;;;5030915;28;20031;-88
2022/07/02 04:54:59;;;;;;;11.10;3.50;;;;;;;;;;5036217;28;20547;-88
2022/07/02 04:57:25;;;;;;;9.48;4.07;;;;;;;;;;5037003;28;20032;-88
2022/07/02 04:59:51;;;;;;;8.98;3.78;;;;;;;;;;5035121;28;20457;-88
2022/07/02 05:02:17;;;;;;;11.45;4.53;;;;;;;;;;5032683;28;20975;-87
2022/07/02 05:04:43;;;;;;;17.42;5.03;;;;;;;;;;5032404;28;20503;-87
2022/07/02 05:07:09;;;;;;;9.23;4.80;;;;;;;;;;5029434;28;20033;-88
2022/07/02 05:09:35;;;;;;;13.05;5.07;;;;;;;;;;5035385;28;20423;-87
2022/07/02 05:12:01;;;;;;;10.65;4.65;;;;;;;;;;5032786;28;20074;-87
2022/07/02 05:14:28;;;;;;;17.42;5.50;;;;;;;;;;5034923;28;20039;-88
2022/07/02 05:16:54;;;;;;;10.57;6.10;;;;;;;;;;5030583;28;20033;-88
2022/07/02 05:19:20;;;;;;;11.80;5.57;;;;;;;;;;5036434;28;20041;-87
2022/07/02 05:21:46;;;;;;;11.23;5.63;;;;;;;;;;5033392;28;20082;-89
2022/07/02 05:24:19;;;;;;;11.88;5.90;;;;;;;;;;5033447;28;20033;-88
2022/07/02 05:26:45;;;;;;;12.13;5.65;;;;;;;;;;5035136;28;20064;-88
2022/07/02 05:29:11;;;;;;;14.00;5.70;;;;;;;;;;5035964;28;20077;-89
2022/07/02 05:31:37;;;;;;;12.23;5.38;;;;;;;;;;5031226;28;20116;-87
2022/07/02 05:34:03;;;;;;;11.00;5.50;;;;;;;;;;5032963;28;20034;-87
2022/07/02 05:36:29;;;;;;;11.77;5.45;;;;;;;;;;5028600;28;20635;-87
2022/07/02 05:38:55;;;;;;;13.75;5.38;;;;;;;;;;4996951;28;20057;-88
2022/07/02 05:41:21;;;;;;;7.50;4.72;;;;;;;;;;4996851;28;20615;-87
2022/07/02 05:43:47;;;;;;;15.02;4.80;;;;;;;;;;4996091;28;20044;-87
2022/07/02 05:46:13;;;;;;;11.50;4.63;;;;;;;;;;5009698;28;20068;-88
2022/07/02 05:48:39;;;;;;;9.73;4.60;;;;;;;;;;4993890;28;20029;-87
2022/07/02 05:51:05;;;;;;;9.73;4.35;;;;;;;;;;4994928;28;20037;-87
2022/07/02 05:53:31;;;;;;;13.68;4.35;;;;;;;;;;4995592;28;20022;-88
2022/07/02 05:55:57;;;;;;;7.60;3.95;;;;;;;;;;4995454;28;20061;-88
2022/07/02 05:58:23;;;;;;;5.97;3.90;;;;;;;;;;4996799;28;20058;-88
2022/07/02 06:00:49;;;;;;;9.73;3.90;;;;;;;;;;4999462;28;20350;-87
2022/07/02 06:03:15;;;;;;;7.55;3.80;;;;;;;;;;5012848;28;20076;-88
2022/07/02 06:08:26;;;;;;;16.05;4.40;;;;;;;;;;5011722;28;20100;-89
2022/07/02 06:10:53;;;;;;;5.63;3.17;;;;;;;;;;4996835;28;20029;-86
2022/07/02 06:13:19;;;;;;;4.63;3.22;;;;;;;;;;4996022;28;20080;-87
2022/07/02 06:15:45;;;;;;;6.80;3.53;;;;;;;;;;5015290;28;20026;-88
2022/07/02 06:18:12;;;;;;;11.40;4.00;;;;;;;;;;4998834;28;20053;-87
2022/07/02 06:20:39;;;;;;;9.77;3.63;;;;;;;;;;4991407;28;20030;-86
2022/07/02 06:23:05;;;;;;;6.10;3.55;;;;;;;;;;4997890;28;20042;-88
2022/07/02 06:25:32;;;;;;;10.35;3.53;;;;;;;;;;4998755;28;20033;-87
2022/07/02 06:27:58;;;;;;;5.40;3.22;;;;;;;;;;4993034;28;20040;-88
2022/07/02 06:30:24;;;;;;;8.63;3.75;;;;;;;;;;4994758;28;20480;-88
2022/07/02 06:32:50;;;;;;;5.68;3.00;;;;;;;;;;4995097;28;20080;-88
2022/07/02 06:35:16;;;;;;;7.35;2.97;;;;;;;;;;4995886;28;20041;-88
2022/07/02 06:37:42;;;;;;;7.75;3.60;;;;;;;;;;5007825;28;20128;-89
2022/07/02 06:40:09;;;;;;;5.68;2.53;;;;;;;;;;5032398;28;20040;-89
2022/07/02 06:42:35;;;;;;;10.15;4.32;;;;;;;;;;5051434;28;20025;-89
2022/07/02 06:45:01;;;;;;;16.48;3.35;;;;;;;;;;5037620;28;20068;-88
2022/07/02 06:47:28;;;;;;;7.78;2.85;;;;;;;;;;5037170;28;20567;-88
2022/07/02 06:49:55;;;;;;;8.35;2.85;;;;;;;;;;5031724;28;20032;-88
2022/07/02 06:52:21;;;;;;;3.47;2.80;;;;;;;;;;5056505;28;20036;-89
2022/07/02 06:54:47;;;;;;;6.88;3.03;;;;;;;;;;5036554;28;20076;-88
2022/07/02 06:57:13;;;;;;;6.60;2.55;;;;;;;;;;5034654;28;20427;-87
2022/07/02 06:59:40;;;;;;;6.97;2.88;;;;;;;;;;5038044;28;20043;-88
2022/07/02 07:02:06;;;;;;;6.60;2.75;;;;;;;;;;5034262;28;20408;-88
2022/07/02 07:04:32;;;;;;;6.20;2.05;;;;;;;;;;5038159;28;20043;-87
2022/07/02 07:07:00;;;;;;;7.35;1.85;;;;;;;;;;5037351;28;20029;-89
2022/07/02 07:09:28;;;;;;;7.57;2.08;;;;;;;;;;5035439;28;20029;-88
2022/07/02 07:11:54;;;;;;;11.15;2.40;;;;;;;;;;5031345;28;20025;-88
2022/07/02 07:14:20;;;;;;;3.28;1.85;;;;;;;;;;5054573;28;20036;-88
2022/07/02 07:16:46;;;;;;;4.85;1.80;;;;;;;;;;5035132;28;20036;-88
2022/07/02 07:19:13;;;;;;;4.63;1.70;;;;;;;;;;5032628;28;20427;-88
2022/07/02 07:21:40;;;;;;;6.55;1.73;;;;;;;;;;5033138;28;20033;-87
2022/07/02 07:24:07;;;;;;;1.73;1.50;;;;;;;;;;5036077;28;20043;-88
2022/07/02 07:26:33;;;;;;;7.15;2.00;;;;;;;;;;5030996;28;20518;-89
2022/07/02 07:29:00;;;;;;;7.63;1.75;;;;;;;;;;5031313;28;20052;-89
2022/07/02 07:31:34;;;;;;;6.55;2.25;;;;;;;;;;5035785;28;20020;-89
2022/07/02 07:34:00;;;;;;;6.07;2.00;;;;;;;;;;5032757;28;20044;-89
2022/07/02 07:36:29;;;;;;;7.13;2.08;;;;;;;;;;5032106;28;20029;-89
2022/07/02 07:38:55;;;;;;;7.45;2.10;;;;;;;;;;5029257;28;20041;-88
2022/07/02 07:41:22;;;;;;;8.10;2.42;;;;;;;;;;5031058;28;20034;-88
2022/07/02 07:43:49;;;;;;;5.85;1.60;;;;;;;;;;5029035;28;20103;-89
2022/07/02 07:46:15;;;;;;;5.32;2.00;;;;;;;;;;5028465;28;20552;-89
2022/07/02 07:48:41;;;;;;;4.50;1.83;;;;;;;;;;5027534;28;20120;-87
2022/07/02 07:51:07;;;;;;;6.70;1.98;;;;;;;;;;5027468;28;20374;-88
2022/07/02 07:53:33;;;;;;;3.40;1.60;;;;;;;;;;5029728;28;20058;-89
2022/07/02 07:56:00;;;;;;;8.23;1.42;;;;;;;;;;5027362;28;20485;-88
2022/07/02 07:58:26;;;;;;;5.78;2.00;;;;;;;;;;5031565;28;20363;-88
2022/07/02 08:00:52;;;;;;;3.50;1.70;;;;;;;;;;5031538;28;20433;-88
2022/07/02 08:03:19;;;;;;;3.90;1.70;;;;;;;;;;5030000;28;20060;-89
2022/07/02 08:05:53;;;;;;;11.40;1.30;;;;;;;;;;5028545;28;20033;-89
2022/07/02 08:08:20;;;;;;;3.70;1.37;;;;;;;;;;5031837;28;20031;-89
2022/07/02 08:10:46;;;;;;;4.38;1.42;;;;;;;;;;5031332;28;20099;-89
2022/07/02 08:13:12;;;;;;;2.95;1.15;;;;;;;;;;5031434;28;20424;-88
2022/07/02 08:15:38;;;;;;;3.42;1.15;;;;;;;;;;5035289;28;20665;-88
2022/07/02 08:18:04;;;;;;;3.00;1.40;;;;;;;;;;5033357;28;20065;-88
2022/07/02 08:20:30;;;;;;;3.13;1.65;;;;;;;;;;5030692;28;20059;-88
2022/07/02 08:22:56;;;;;;;4.95;1.75;;;;;;;;;;5037064;28;20485;-87
2022/07/02 08:25:22;;;;;;;5.25;1.67;;;;;;;;;;5035333;28;20468;-88
2022/07/02 08:27:48;;;;;;;4.95;1.60;;;;;;;;;;5038487;28;20087;-87
2022/07/02 08:30:14;;;;;;;2.25;1.23;;;;;;;;;;5032487;28;20029;-88
2022/07/02 08:32:40;;;;;;;2.85;1.55;;;;;;;;;;5028231;28;20049;-88
2022/07/02 08:35:07;;;;;;;2.45;1.60;;;;;;;;;;5029156;28;20044;-89
2022/07/02 08:37:33;;;;;;;2.45;1.50;;;;;;;;;;5032979;28;20041;-89
2022/07/02 08:39:59;;;;;;;5.63;1.50;;;;;;;;;;5031380;28;20044;-88
2022/07/02 08:42:26;;;;;;;4.07;1.20;;;;;;;;;;5030193;28;20037;-89
2022/07/02 08:44:57;;;;;;;1.33;1.23;;;;;;;;;;5033642;28;20056;-88
2022/07/02 08:47:23;;;;;;;4.00;1.65;;;;;;;;;;5033184;28;20563;-88
2022/07/02 08:49:51;;;;;;;4.63;1.45;;;;;;;;;;5031267;28;20057;-88
2022/07/02 08:52:17;;;;;;;5.82;1.50;;;;;;;;;;5036177;28;20052;-89
2022/07/02 08:54:44;;;;;;;2.38;1.33;;;;;;;;;;5034957;28;20049;-89
2022/07/02 08:57:11;;;;;;;6.20;1.40;;;;;;;;;;5032698;28;20140;-88
2022/07/02 08:59:37;;;;;;;3.80;1.25;;;;;;;;;;5030656;28;20060;-89
2022/07/02 09:02:03;;;;;;;3.05;0.90;;;;;;;;;;5031201;28;20033;-88
2022/07/02 09:04:30;;;;;;;5.28;1.15;;;;;;;;;;5034234;28;20047;-87
2022/07/02 09:07:00;;;;;;;3.95;1.20;;;;;;;;;;5030632;28;20059;-88
2022/07/02 09:09:29;;;;;;;1.83;1.45;;;;;;;;;;5032875;28;20038;-88
2022/07/02 09:11:56;;;;;;;1.95;1.30;;;;;;;;;;5035758;28;20555;-87
2022/07/02 09:14:22;;;;;;;2.25;1.20;;;;;;;;;;5039046;28;20132;-88
2022/07/02 09:16:48;;;;;;;1.77;1.10;;;;;;;;;;5034448;28;20071;-89
2022/07/02 09:19:15;;;;;;;1.52;0.90;;;;;;;;;;5034453;28;20033;-89
2022/07/02 09:21:47;;;;;;;4.07;1.13;;;;;;;;;;5029854;28;20033;-89
2022/07/02 09:24:13;;;;;;;6.78;1.05;;;;;;;;;;5032264;28;20690;-88
2022/07/02 09:26:39;;;;;;;3.85;1.17;;;;;;;;;;5033642;28;20036;-89
2022/07/02 09:29:06;;;;;;;4.70;1.13;;;;;;;;;;5034290;28;20041;-87
2022/07/02 09:31:32;;;;;;;3.28;1.15;;;;;;;;;;5031151;28;20072;-87
2022/07/02 09:33:59;;;;;;;2.65;1.20;;;;;;;;;;5030765;28;20089;-88
2022/07/02 09:36:25;;;;;;;3.42;1.15;;;;;;;;;;5040279;28;20028;-88
2022/07/02 09:38:53;;;;;;;1.70;0.60;;;;;;;;;;5029533;28;20065;-88
2022/07/02 09:41:21;;;;;;;3.50;0.98;;;;;;;;;;5029550;28;20041;-88
2022/07/02 09:43:52;;;;;;;2.65;0.70;;;;;;;;;;5031817;28;20013;-89
2022/07/02 09:46:19;;;;;;;1.38;0.85;;;;;;;;;;5037057;28;20029;-88
2022/07/02 09:48:46;;;;;;;0.63;0.60;;;;;;;;;;5037336;28;20549;-88
2022/07/02 09:51:12;;;;;;;1.33;1.00;;;;;;;;;;5033025;28;20551;-89
2022/07/02 09:53:51;;;;;;;2.47;0.73;;;;;;;;;;5031514;28;20060;-88
2022/07/02 09:56:18;;;;;;;1.88;0.90;;;;;;;;;;5038977;28;20199;-87
2022/07/02 09:58:44;;;;;;;1.42;0.90;;;;;;;;;;5029965;28;20045;-88
2022/07/02 10:01:10;;;;;;;0.63;0.52;;;;;;;;;;5034271;28;20033;-88
2022/07/02 10:03:46;;;;;;;2.58;1.15;;;;;;;;;;5036829;28;20034;-88
2022/07/02 10:06:13;;;;;;;0.85;0.73;;;;;;;;;;5029843;28;20041;-88
2022/07/02 10:08:40;;;;;;;4.60;0.90;;;;;;;;;;5029988;28;20584;-89
2022/07/02 10:11:13;;;;;;;4.63;1.10;;;;;;;;;;5030407;28;20025;-89
2022/07/02 10:13:40;;;;;;;4.60;1.48;;;;;;;;;;5030000;28;20404;-90
2022/07/02 10:16:13;;;;;;;3.47;1.13;;;;;;;;;;5030028;28;20555;-89
2022/07/02 10:18:40;;;;;;;7.13;1.25;;;;;;;;;;5033696;28;20424;-89
2022/07/02 10:21:07;;;;;;;5.47;0.95;;;;;;;;;;5031114;28;20030;-90
2022/07/02 10:23:34;;;;;;;1.70;0.95;;;;;;;;;;5029547;28;20067;-90
2022/07/02 10:26:00;;;;;;;2.25;1.10;;;;;;;;;;5032479;28;20096;-90
2022/07/02 10:28:29;;;;;;;1.38;0.70;;;;;;;;;;5034268;28;21648;-90
2022/07/02 10:30:59;;;;;;;0.85;0.85;;;;;;;;;;5031121;28;20643;-89
2022/07/02 10:33:37;;;;;;;5.00;1.35;;;;;;;;;;5035416;28;20037;-89
2022/07/02 10:36:04;;;;;;;2.13;1.00;;;;;;;;;;5037400;28;20025;-88
2022/07/02 10:38:31;;;;;;;1.33;0.88;;;;;;;;;;5028777;28;20731;-89
2022/07/02 10:41:04;;;;;;;1.35;0.93;;;;;;;;;;5029472;28;20029;-89
2022/07/02 10:43:33;;;;;;;0.82;0.60;;;;;;;;;;5011150;28;20551;-89
2022/07/02 10:46:25;;;;;;;2.92;1.10;;;;;;;;;;5016008;28;20508;-90
2022/07/02 10:48:53;;;;;;;1.20;0.90;;;;;;;;;;5029995;28;20040;-89
2022/07/02 10:51:26;;;;;;;3.10;0.80;;;;;;;;;;5018675;28;20503;-89
2022/07/02 10:54:00;;;;;;;2.28;1.00;;;;;;;;;;5012890;28;20708;-89
2022/07/02 10:56:29;;;;;;;3.60;1.02;;;;;;;;;;5016602;28;20041;-88
2022/07/02 10:58:55;;;;;;;0.98;0.80;;;;;;;;;;5032228;28;20028;-89
2022/07/02 11:01:22;;;;;;;2.88;1.27;;;;;;;;;;5012897;28;20044;-89
2022/07/02 11:03:51;;;;;;;5.60;1.27;;;;;;;;;;5011049;28;20030;-90
2022/07/02 11:06:25;;;;;;;3.25;1.15;;;;;;;;;;5016710;28;20484;-90
2022/07/02 11:08:55;;;;;;;1.45;0.90;;;;;;;;;;5009831;28;20025;-87
2022/07/02 11:11:43;;;;;;;1.33;1.20;;;;;;;;;;5014914;28;20124;-88
2022/07/02 11:14:09;;;;;;;3.50;0.90;;;;;;;;;;5013928;28;20124;-88
2022/07/02 11:16:38;;;;;;;1.02;0.77;;;;;;;;;;5014528;28;20182;-89
2022/07/02 11:19:05;;;;;;;2.58;1.25;;;;;;;;;;5012626;28;20037;-88
2022/07/02 11:21:31;;;;;;;1.92;1.08;;;;;;;;;;5012193;28;20022;-88
2022/07/02 11:23:57;;;;;;;3.08;0.80;;;;;;;;;;5014027;28;20041;-88
2022/07/02 11:26:25;;;;;;;1.35;1.00;;;;;;;;;;5016514;28;20435;-89
2022/07/02 11:28:51;;;;;;;3.08;0.80;;;;;;;;;;5014264;28;20041;-88
2022/07/02 11:31:18;;;;;;;1.70;0.80;;;;;;;;;;5011344;28;20452;-89
2022/07/02 11:33:45;;;;;;;2.30;0.88;;;;;;;;;;5012414;28;20520;-88
2022/07/02 11:36:11;;;;;;;2.97;1.25;;;;;;;;;;5016225;28;20034;-88
2022/07/02 11:38:38;;;;;;;0.88;0.70;;;;;;;;;;5017214;28;20061;-88
2022/07/02 11:41:15;;;;;;;0.80;0.80;;;;;;;;;;5015800;28;20034;-88
2022/07/02 11:43:44;;;;;;;2.60;1.15;;;;;;;;;;5041630;28;20021;-88
2022/07/02 11:46:11;;;;;;;2.28;0.98;;;;;;;;;;5052972;28;20029;-89
2022/07/02 11:48:37;;;;;;;6.07;0.80;;;;;;;;;;5042053;28;20057;-90
2022/07/02 11:51:03;;;;;;;1.02;0.70;;;;;;;;;;5041168;28;20513;-91
2022/07/02 11:53:29;;;;;;;4.40;0.60;;;;;;;;;;5037396;28;20076;-92
2022/07/02 11:56:04;;;;;;;5.55;0.90;;;;;;;;;;5040182;28;20025;-90
2022/07/02 11:58:30;;;;;;;;;;;;;;;;;;5045771;28;20025;-90
2022/07/02 12:00:56;;;;;;;2.42;0.73;;;;;;;;;;5039324;28;19936;-91
2022/07/02 12:03:22;;;;;;;2.28;1.00;;;;;;;;;;5038658;28;20039;-91
2022/07/02 12:05:52;;;;;;;1.15;0.77;;;;;;;;;;5032911;28;20037;-91
2022/07/02 12:08:18;;;;;;;2.33;0.98;;;;;;;;;;5044519;28;20037;-89
2022/07/02 12:10:45;;;;;;;2.85;0.90;;;;;;;;;;5036891;28;20033;-90
2022/07/02 12:13:11;;;;;;;2.60;0.98;;;;;;;;;;5043307;28;20395;-89
2022/07/02 12:15:41;;;;;;;0.63;0.60;;;;;;;;;;5037625;28;20522;-89
2022/07/02 12:18:21;;;;;;;0.98;0.50;;;;;;;;;;5038859;28;20067;-89
2022/07/02 12:20:47;;;;;;;1.85;0.70;;;;;;;;;;5046313;28;20040;-89
2022/07/02 12:23:14;;;;;;;1.58;0.80;;;;;;;;;;5036512;28;20044;-90
2022/07/02 12:25:47;;;;;;;3.47;1.15;;;;;;;;;;5054136;28;20035;-90
2022/07/02 12:31:50;;;;;;;2.50;0.90;;;;;;;;;;4785672;27;8114958;-88
2022/07/02 12:34:16;;;;;;;2.00;0.73;;;;;;;;;;5047929;28;20291;-88
2022/07/02 12:36:52;;;;;;;1.95;1.30;;;;;;;;;;5045761;28;20131;-87
2022/07/02 12:39:19;;;;;;;4.05;1.20;;;;;;;;;;5057046;28;20032;-87
2022/07/02 12:41:45;;;;;;;2.97;0.90;;;;;;;;;;5030347;28;20566;-87
2022/07/02 12:44:21;;;;;;;1.98;0.75;;;;;;;;;;5023484;28;20104;-87
2022/07/02 12:46:48;;;;;;;2.67;0.75;;;;;;;;;;5045215;28;20033;-87
2022/07/02 12:49:14;;;;;;;1.60;0.90;;;;;;;;;;5022588;28;20024;-88
2022/07/02 12:51:50;;;;;;;2.53;0.85;;;;;;;;;;5024616;28;20033;-87
2022/07/02 12:54:16;;;;;;;0.98;0.68;;;;;;;;;;5023983;28;20032;-87
2022/07/02 12:56:42;;;;;;;2.72;0.90;;;;;;;;;;5034239;28;22728;-87
2022/07/02 12:59:08;;;;;;;3.67;1.20;;;;;;;;;;5020722;28;20141;-87
2022/07/02 13:01:38;;;;;;;1.95;0.98;;;;;;;;;;5043757;28;20116;-87
2022/07/02 13:04:04;;;;;;;2.40;0.68;;;;;;;;;;5030125;28;20790;-87
2022/07/02 13:06:30;;;;;;;1.35;0.80;;;;;;;;;;5027390;28;20056;-87
2022/07/02 13:08:55;;;;;;;1.35;0.90;;;;;;;;;;5024252;28;20463;-87
2022/07/02 13:11:23;;;;;;;1.52;1.10;;;;;;;;;;5021937;28;20037;-87
2022/07/02 13:13:50;;;;;;;3.83;0.63;;;;;;;;;;5017967;28;20030;-87
2022/07/02 13:16:16;;;;;;;1.30;0.70;;;;;;;;;;5041229;28;20436;-87
2022/07/02 13:18:42;;;;;;;4.10;1.20;;;;;;;;;;5033472;28;20111;-87
2022/07/02 13:21:08;;;;;;;5.00;0.77;;;;;;;;;;5026101;28;20095;-88
2022/07/02 13:23:34;;;;;;;2.00;0.70;;;;;;;;;;5025081;28;20037;-87
2022/07/02 13:26:00;;;;;;;2.22;0.82;;;;;;;;;;5016481;28;20043;-87
2022/07/02 13:28:26;;;;;;;2.85;1.08;;;;;;;;;;5023201;28;20072;-87
2022/07/02 13:30:52;;;;;;;2.55;0.60;;;;;;;;;;5021359;28;20531;-87
2022/07/02 13:33:18;;;;;;;3.95;0.90;;;;;;;;;;5012645;28;20040;-87
2022/07/02 13:35:44;;;;;;;2.55;0.68;;;;;;;;;;5017129;28;20022;-86
2022/07/02 13:38:10;;;;;;;1.77;0.80;;;;;;;;;;5025320;28;20112;-87
2022/07/02 13:40:36;;;;;;;1.40;0.93;;;;;;;;;;5018590;28;20105;-87
2022/07/02 13:43:02;;;;;;;3.15;0.73;;;;;;;;;;5006832;28;20138;-87
2022/07/02 13:45:28;;;;;;;1.20;0.60;;;;;;;;;;5007099;28;20077;-88
2022/07/02 13:47:54;;;;;;;2.88;0.98;;;;;;;;;;5008028;28;20041;-87
2022/07/02 13:50:22;;;;;;;2.72;1.08;;;;;;;;;;5004247;28;20083;-87
2022/07/02 13:52:48;;;;;;;1.30;0.52;;;;;;;;;;5000204;28;20037;-86
2022/07/02 13:55:14;;;;;;;3.38;0.85;;;;;;;;;;5004494;28;20433;-87
2022/07/02 13:57:40;;;;;;;1.38;0.80;;;;;;;;;;5006323;28;20033;-85
2022/07/02 14:00:06;;;;;;;1.05;0.90;;;;;;;;;;5004867;28;20025;-88
2022/07/02 14:02:32;;;;;;;1.35;0.90;;;;;;;;;;4999461;28;20060;-87
2022/07/02 14:04:58;;;;;;;1.73;0.70;;;;;;;;;;5002616;28;20030;-87
2022/07/02 14:07:24;;;;;;;0.95;0.70;;;;;;;;;;5009028;28;20035;-87
2022/07/02 14:09:50;;;;;;;1.38;0.88;;;;;;;;;;5008162;28;20119;-86
2022/07/02 14:12:16;;;;;;;1.60;0.68;;;;;;;;;;5006056;28;20030;-87
2022/07/02 14:14:42;;;;;;;5.20;1.30;;;;;;;;;;5008562;28;20502;-87
2022/07/02 14:17:08;;;;;;;0.98;0.70;;;;;;;;;;5005316;28;20551;-86
2022/07/02 14:19:35;;;;;;;3.00;0.80;;;;;;;;;;5001478;28;20038;-87
2022/07/02 14:22:02;;;;;;;4.20;0.80;;;;;;;;;;5003888;28;20041;-87
2022/07/02 14:24:28;;;;;;;2.47;0.80;;;;;;;;;;5003565;28;20432;-87
2022/07/02 14:26:54;;;;;;;0.60;0.60;;;;;;;;;;5005195;28;20507;-87
2022/07/02 14:29:20;;;;;;;1.85;0.70;;;;;;;;;;5003606;28;20203;-87
2022/07/02 14:31:48;;;;;;;8.45;1.65;;;;;;;;;;4986230;28;20049;-88
2022/07/02 14:34:17;;;;;;;3.63;1.08;;;;;;;;;;4978962;28;20026;-87
2022/07/02 14:36:44;;;;;;;2.50;0.80;;;;;;;;;;4982047;28;20417;-86
2022/07/02 14:39:10;;;;;;;3.70;0.65;;;;;;;;;;4985640;28;20094;-86
2022/07/02 14:41:36;;;;;;;2.30;1.00;;;;;;;;;;4986312;28;20498;-86
2022/07/02 14:44:02;;;;;;;1.10;0.95;;;;;;;;;;4979649;28;20536;-86
2022/07/02 14:46:31;;;;;;;1.67;0.90;;;;;;;;;;4985305;28;20026;-86
2022/07/02 14:48:58;;;;;;;1.15;0.77;;;;;;;;;;4979821;28;20034;-86
2022/07/02 14:51:24;;;;;;;4.38;0.82;;;;;;;;;;4980111;28;20069;-86